Charlesbourg, Canada
Current Conditions -  °F | °C
As of 12:00 AM on Wednesday 26 Nov 2014 (Local Time) from CYQB Reporting Station
Broken Clouds Broken Clouds  
Wind Chill: 27°   Ceiling: 5600
Heat Index: 37°   Visibility: 15mi
Dew Point: 28°   Wind: 22mph
Humidity: 70%   Direction: 230°SW
Pressure: 29.95"   Gusts: 30mph
Location:  46.86°N, 71.27°W
Report Text: CYQB 260500Z 23019G26KT 15SM FEW048 BKN056 BKN090 03/M02 A2995 RMK SC1SC4AC2 SLP146
Loading
Personal Weather Stations






























Interactive Weather Map New forecast layout! Learn more

10-Day Weather Forecast

Advertisements
Track Severe Weather on mobile